sensor_id;sensor_type;location;lat;lon;timestamp;pressure;altitude;pressure_sealevel;temperature;humidity
81181;BME280;70650;51.408;7.132;2024-02-04T00:01:18;101046.44;;;9.58;97.40
81181;BME280;70650;51.408;7.132;2024-02-04T00:03:43;101045.22;;;9.45;97.77
81181;BME280;70650;51.408;7.132;2024-02-04T00:06:09;101051.97;;;9.52;97.74
81181;BME280;70650;51.408;7.132;2024-02-04T00:08:34;101049.69;;;9.43;97.78
81181;BME280;70650;51.408;7.132;2024-02-04T00:10:59;101045.97;;;9.48;97.82
81181;BME280;70650;51.408;7.132;2024-02-04T00:13:25;101046.00;;;9.47;97.49
81181;BME280;70650;51.408;7.132;2024-02-04T00:15:52;101043.19;;;9.51;97.17
81181;BME280;70650;51.408;7.132;2024-02-04T00:18:19;101040.97;;;9.41;97.38
81181;BME280;70650;51.408;7.132;2024-02-04T00:20:45;101037.28;;;9.45;97.39
81181;BME280;70650;51.408;7.132;2024-02-04T00:23:11;101028.41;;;9.47;97.50
81181;BME280;70650;51.408;7.132;2024-02-04T00:25:37;101018.72;;;9.48;97.75
81181;BME280;70650;51.408;7.132;2024-02-04T00:28:02;101014.56;;;9.41;97.83
81181;BME280;70650;51.408;7.132;2024-02-04T00:30:28;101006.84;;;9.36;98.04
81181;BME280;70650;51.408;7.132;2024-02-04T00:32:53;101019.41;;;9.29;97.92
81181;BME280;70650;51.408;7.132;2024-02-04T00:35:19;101022.63;;;9.38;98.07
81181;BME280;70650;51.408;7.132;2024-02-04T00:37:44;101020.09;;;9.35;97.75
81181;BME280;70650;51.408;7.132;2024-02-04T00:40:10;101025.31;;;9.36;97.71
81181;BME280;70650;51.408;7.132;2024-02-04T00:42:35;101019.06;;;9.39;98.21
81181;BME280;70650;51.408;7.132;2024-02-04T00:45:01;101029.72;;;9.36;98.14
81181;BME280;70650;51.408;7.132;2024-02-04T00:47:26;101028.69;;;9.40;98.31
81181;BME280;70650;51.408;7.132;2024-02-04T00:49:51;101034.44;;;9.27;98.97
81181;BME280;70650;51.408;7.132;2024-02-04T00:52:16;101036.28;;;9.25;99.37
81181;BME280;70650;51.408;7.132;2024-02-04T00:54:42;101016.81;;;9.28;99.83
81181;BME280;70650;51.408;7.132;2024-02-04T00:57:07;101026.41;;;9.31;100.00
81181;BME280;70650;51.408;7.132;2024-02-04T00:59:33;101025.72;;;9.25;100.00
81181;BME280;70650;51.408;7.132;2024-02-04T01:01:58;101028.38;;;9.25;100.00
81181;BME280;70650;51.408;7.132;2024-02-04T01:04:24;101021.25;;;9.27;100.00
81181;BME280;70650;51.408;7.132;2024-02-04T01:06:50;101020.56;;;9.22;100.00
81181;BME280;70650;51.408;7.132;2024-02-04T01:09:15;101025.72;;;9.25;100.00
81181;BME280;70650;51.408;7.132;2024-02-04T01:11:40;101014.13;;;9.29;99.83
81181;BME280;70650;51.408;7.132;2024-02-04T01:14:05;101022.69;;;9.36;99.09
81181;BME280;70650;51.408;7.132;2024-02-04T01:16:31;101020.78;;;9.40;98.86
81181;BME280;70650;51.408;7.132;2024-02-04T01:18:56;101022.38;;;9.44;98.99
81181;BME280;70650;51.408;7.132;2024-02-04T01:21:22;101024.09;;;9.45;98.69
81181;BME280;70650;51.408;7.132;2024-02-04T01:23:47;101023.63;;;9.57;98.35
81181;BME280;70650;51.408;7.132;2024-02-04T01:26:12;101023.84;;;9.51;98.96
81181;BME280;70650;51.408;7.132;2024-02-04T01:28:38;101024.22;;;9.42;98.91
81181;BME280;70650;51.408;7.132;2024-02-04T01:31:04;101025.72;;;9.49;99.28
81181;BME280;70650;51.408;7.132;2024-02-04T01:33:29;101029.38;;;9.45;98.99
81181;BME280;70650;51.408;7.132;2024-02-04T01:35:55;101035.44;;;9.47;98.97
81181;BME280;70650;51.408;7.132;2024-02-04T01:38:20;101027.53;;;9.47;99.28
81181;BME280;70650;51.408;7.132;2024-02-04T01:40:45;101029.31;;;9.46;98.94
81181;BME280;70650;51.408;7.132;2024-02-04T01:43:11;101028.84;;;9.35;99.66
81181;BME280;70650;51.408;7.132;2024-02-04T01:45:37;101032.00;;;9.45;99.66
81181;BME280;70650;51.408;7.132;2024-02-04T01:48:04;101030.53;;;9.38;99.63
81181;BME280;70650;51.408;7.132;2024-02-04T01:50:30;101029.22;;;9.49;99.56
81181;BME280;70650;51.408;7.132;2024-02-04T01:52:56;101025.59;;;9.28;100.00
81181;BME280;70650;51.408;7.132;2024-02-04T01:55:22;101024.75;;;9.28;100.00
81181;BME280;70650;51.408;7.132;2024-02-04T01:57:48;101017.63;;;9.30;100.00
81181;BME280;70650;51.408;7.132;2024-02-04T02:00:15;101016.66;;;9.33;100.00
81181;BME280;70650;51.408;7.132;2024-02-04T02:02:41;101007.72;;;9.37;100.00
81181;BME280;70650;51.408;7.132;2024-02-04T02:05:07;101002.38;;;9.38;100.00
81181;BME280;70650;51.408;7.132;2024-02-04T02:07:33;101003.47;;;9.33;100.00
81181;BME280;70650;51.408;7.132;2024-02-04T02:09:58;101005.97;;;9.36;100.00
81181;BME280;70650;51.408;7.132;2024-02-04T02:12:27;101002.44;;;9.37;100.00
81181;BME280;70650;51.408;7.132;2024-02-04T02:15:14;101017.97;;;9.44;100.00
81181;BME280;70650;51.408;7.132;2024-02-04T02:17:57;101004.16;;;9.38;100.00
81181;BME280;70650;51.408;7.132;2024-02-04T02:23:07;101015.88;;;9.52;100.00
81181;BME280;70650;51.408;7.132;2024-02-04T02:25:36;101013.38;;;9.49;100.00
81181;BME280;70650;51.408;7.132;2024-02-04T02:28:03;101020.34;;;9.50;100.00
81181;BME280;70650;51.408;7.132;2024-02-04T02:30:28;101019.69;;;9.45;100.00
81181;BME280;70650;51.408;7.132;2024-02-04T02:32:54;101014.31;;;9.47;100.00
81181;BME280;70650;51.408;7.132;2024-02-04T02:35:20;101007.06;;;9.53;100.00
81181;BME280;70650;51.408;7.132;2024-02-04T02:37:56;101012.94;;;9.60;100.00
81181;BME280;70650;51.408;7.132;2024-02-04T02:40:46;101001.47;;;9.61;100.00
81181;BME280;70650;51.408;7.132;2024-02-04T02:43:13;101006.19;;;9.53;100.00
81181;BME280;70650;51.408;7.132;2024-02-04T02:45:42;101012.34;;;9.53;100.00
81181;BME280;70650;51.408;7.132;2024-02-04T02:48:08;101006.06;;;9.56;100.00
81181;BME280;70650;51.408;7.132;2024-02-04T02:50:35;101011.28;;;9.57;100.00
81181;BME280;70650;51.408;7.132;2024-02-04T02:53:01;100996.13;;;9.63;99.75
81181;BME280;70650;51.408;7.132;2024-02-04T02:55:26;101016.19;;;9.67;99.65
81181;BME280;70650;51.408;7.132;2024-02-04T02:57:51;101014.78;;;9.58;100.00
81181;BME280;70650;51.408;7.132;2024-02-04T03:00:17;101009.25;;;9.42;100.00
81181;BME280;70650;51.408;7.132;2024-02-04T03:02:43;101008.16;;;9.48;100.00
81181;BME280;70650;51.408;7.132;2024-02-04T03:05:09;101002.91;;;9.46;100.00
81181;BME280;70650;51.408;7.132;2024-02-04T03:07:35;101000.78;;;9.56;100.00
81181;BME280;70650;51.408;7.132;2024-02-04T03:10:00;101002.63;;;9.54;100.00
81181;BME280;70650;51.408;7.132;2024-02-04T03:12:25;101000.78;;;9.56;99.78
81181;BME280;70650;51.408;7.132;2024-02-04T03:14:50;100997.91;;;9.62;99.28
81181;BME280;70650;51.408;7.132;2024-02-04T03:17:17;101000.53;;;9.62;98.95
81181;BME280;70650;51.408;7.132;2024-02-04T03:19:46;100997.38;;;9.52;100.00
81181;BME280;70650;51.408;7.132;2024-02-04T03:22:12;101002.63;;;9.54;99.63
81181;BME280;70650;51.408;7.132;2024-02-04T03:24:38;100999.59;;;9.63;99.62
81181;BME280;70650;51.408;7.132;2024-02-04T03:27:03;101006.00;;;9.57;99.69
81181;BME280;70650;51.408;7.132;2024-02-04T03:29:29;100996.25;;;9.60;99.55
81181;BME280;70650;51.408;7.132;2024-02-04T03:31:55;100985.09;;;9.53;99.57
81181;BME280;70650;51.408;7.132;2024-02-04T03:34:21;100986.59;;;9.59;99.53
81181;BME280;70650;51.408;7.132;2024-02-04T03:36:46;100977.69;;;9.61;99.36
81181;BME280;70650;51.408;7.132;2024-02-04T03:39:11;100980.34;;;9.61;99.55
81181;BME280;70650;51.408;7.132;2024-02-04T03:41:37;100976.09;;;9.57;99.65
81181;BME280;70650;51.408;7.132;2024-02-04T03:44:02;100978.88;;;9.54;99.86
81181;BME280;70650;51.408;7.132;2024-02-04T03:46:28;100961.84;;;9.61;99.66
81181;BME280;70650;51.408;7.132;2024-02-04T03:48:53;100963.72;;;9.59;99.58
81181;BME280;70650;51.408;7.132;2024-02-04T03:51:19;100972.25;;;9.66;99.18
81181;BME280;70650;51.408;7.132;2024-02-04T03:53:44;100977.53;;;9.66;99.18
81181;BME280;70650;51.408;7.132;2024-02-04T03:56:10;100976.59;;;9.67;99.28
81181;BME280;70650;51.408;7.132;2024-02-04T03:58:36;100973.44;;;9.79;98.96
81181;BME280;70650;51.408;7.132;2024-02-04T04:01:02;100980.88;;;9.69;99.19
81181;BME280;70650;51.408;7.132;2024-02-04T04:03:27;100988.56;;;9.75;98.89
81181;BME280;70650;51.408;7.132;2024-02-04T04:05:53;100986.06;;;9.72;98.94
81181;BME280;70650;51.408;7.132;2024-02-04T04:08:19;100990.28;;;9.76;98.79
81181;BME280;70650;51.408;7.132;2024-02-04T04:10:45;100979.06;;;9.71;99.00
81181;BME280;70650;51.408;7.132;2024-02-04T04:13:11;100972.91;;;9.71;98.95
81181;BME280;70650;51.408;7.132;2024-02-04T04:15:37;100973.69;;;9.73;98.95
81181;BME280;70650;51.408;7.132;2024-02-04T04:18:03;100964.13;;;9.70;99.19
81181;BME280;70650;51.408;7.132;2024-02-04T04:20:28;100971.91;;;9.73;99.09
81181;BME280;70650;51.408;7.132;2024-02-04T04:22:53;100966.81;;;9.69;99.18
81181;BME280;70650;51.408;7.132;2024-02-04T04:25:20;100967.00;;;9.64;99.04
81181;BME280;70650;51.408;7.132;2024-02-04T04:27:45;100972.06;;;9.70;99.25
81181;BME280;70650;51.408;7.132;2024-02-04T04:30:12;100988.81;;;9.69;99.19
81181;BME280;70650;51.408;7.132;2024-02-04T04:32:37;100989.53;;;9.73;99.12
81181;BME280;70650;51.408;7.132;2024-02-04T04:35:03;100991.44;;;9.69;99.12
81181;BME280;70650;51.408;7.132;2024-02-04T04:37:28;100997.56;;;9.70;98.99
81181;BME280;70650;51.408;7.132;2024-02-04T04:39:54;100999.44;;;9.68;99.04
81181;BME280;70650;51.408;7.132;2024-02-04T04:42:19;100991.25;;;9.74;98.87
81181;BME280;70650;51.408;7.132;2024-02-04T04:44:44;100989.78;;;9.67;99.01
81181;BME280;70650;51.408;7.132;2024-02-04T04:47:10;101002.94;;;9.68;98.46
81181;BME280;70650;51.408;7.132;2024-02-04T04:49:35;100998.75;;;9.63;98.23
81181;BME280;70650;51.408;7.132;2024-02-04T04:52:00;101005.06;;;9.59;98.15
81181;BME280;70650;51.408;7.132;2024-02-04T04:54:27;101006.59;;;9.64;98.20
81181;BME280;70650;51.408;7.132;2024-02-04T04:56:53;100998.75;;;9.63;98.15
81181;BME280;70650;51.408;7.132;2024-02-04T04:59:18;100989.97;;;9.62;98.11
81181;BME280;70650;51.408;7.132;2024-02-04T05:01:50;100985.25;;;9.70;97.58
81181;BME280;70650;51.408;7.132;2024-02-04T05:04:16;100981.63;;;9.73;97.24
81181;BME280;70650;51.408;7.132;2024-02-04T05:06:43;100975.66;;;9.68;97.54
81181;BME280;70650;51.408;7.132;2024-02-04T05:09:09;100974.13;;;9.40;98.54
81181;BME280;70650;51.408;7.132;2024-02-04T05:11:34;100978.72;;;9.35;99.07
81181;BME280;70650;51.408;7.132;2024-02-04T05:13:59;100972.47;;;9.38;98.64
81181;BME280;70650;51.408;7.132;2024-02-04T05:16:25;100967.19;;;9.38;98.58
81181;BME280;70650;51.408;7.132;2024-02-04T05:18:50;100974.25;;;9.37;98.62
81181;BME280;70650;51.408;7.132;2024-02-04T05:21:15;100985.78;;;9.35;98.07
81181;BME280;70650;51.408;7.132;2024-02-04T05:23:41;100974.13;;;9.40;97.91
81181;BME280;70650;51.408;7.132;2024-02-04T05:26:06;100988.13;;;9.42;97.43
81181;BME280;70650;51.408;7.132;2024-02-04T05:28:32;100988.75;;;9.49;97.08
81181;BME280;70650;51.408;7.132;2024-02-04T05:30:58;100987.06;;;9.46;96.25
81181;BME280;70650;51.408;7.132;2024-02-04T05:33:23;100993.34;;;9.44;96.89
81181;BME280;70650;51.408;7.132;2024-02-04T05:35:48;100989.53;;;9.51;97.13
81181;BME280;70650;51.408;7.132;2024-02-04T05:38:14;100975.47;;;9.50;97.05
81181;BME280;70650;51.408;7.132;2024-02-04T05:40:39;100971.75;;;9.56;96.47
81181;BME280;70650;51.408;7.132;2024-02-04T05:43:05;100976.94;;;9.57;96.61
81181;BME280;70650;51.408;7.132;2024-02-04T05:45:33;100965.72;;;9.52;96.97
81181;BME280;70650;51.408;7.132;2024-02-04T05:47:58;100950.09;;;9.48;97.47
81181;BME280;70650;51.408;7.132;2024-02-04T05:50:23;100937.34;;;9.57;97.01
81181;BME280;70650;51.408;7.132;2024-02-04T05:52:49;100949.22;;;9.47;97.24
81181;BME280;70650;51.408;7.132;2024-02-04T05:55:14;100953.34;;;9.54;97.12
81181;BME280;70650;51.408;7.132;2024-02-04T05:57:41;100951.53;;;9.55;97.38
81181;BME280;70650;51.408;7.132;2024-02-04T06:00:07;100947.19;;;9.54;97.68
81181;BME280;70650;51.408;7.132;2024-02-04T06:02:35;100948.13;;;9.53;97.63
81181;BME280;70650;51.408;7.132;2024-02-04T06:05:01;100948.13;;;9.53;97.62
81181;BME280;70650;51.408;7.132;2024-02-04T06:07:26;100946.38;;;9.52;97.66
81181;BME280;70650;51.408;7.132;2024-02-04T06:09:52;100947.38;;;9.49;97.79
81181;BME280;70650;51.408;7.132;2024-02-04T06:12:17;100946.94;;;9.60;97.75
81181;BME280;70650;51.408;7.132;2024-02-04T06:14:42;100941.00;;;9.55;97.71
81181;BME280;70650;51.408;7.132;2024-02-04T06:17:07;100942.69;;;9.56;97.82
81181;BME280;70650;51.408;7.132;2024-02-04T06:19:34;100936.63;;;9.54;98.04
81181;BME280;70650;51.408;7.132;2024-02-04T06:22:00;100941.00;;;9.55;97.87
81181;BME280;70650;51.408;7.132;2024-02-04T06:24:25;100936.50;;;9.57;97.91
81181;BME280;70650;51.408;7.132;2024-02-04T06:26:50;100932.28;;;9.53;98.05
81181;BME280;70650;51.408;7.132;2024-02-04T06:29:16;100940.84;;;9.58;97.97
81181;BME280;70650;51.408;7.132;2024-02-04T06:31:44;100921.59;;;9.56;97.94
81181;BME280;70650;51.408;7.132;2024-02-04T06:34:10;100919.97;;;9.52;98.23
81181;BME280;70650;51.408;7.132;2024-02-04T06:36:35;100914.66;;;9.53;98.54
81181;BME280;70650;51.408;7.132;2024-02-04T06:39:01;100912.19;;;9.49;99.01
81181;BME280;70650;51.408;7.132;2024-02-04T06:41:27;100915.09;;;9.43;99.25
81181;BME280;70650;51.408;7.132;2024-02-04T06:43:53;100921.75;;;9.51;98.67
81181;BME280;70650;51.408;7.132;2024-02-04T06:46:27;100923.78;;;9.45;99.16
81181;BME280;70650;51.408;7.132;2024-02-04T06:48:53;100920.06;;;9.50;99.01
81181;BME280;70650;51.408;7.132;2024-02-04T06:51:19;100918.41;;;9.48;98.98
81181;BME280;70650;51.408;7.132;2024-02-04T06:53:45;100904.88;;;9.34;99.40
81181;BME280;70650;51.408;7.132;2024-02-04T06:56:10;100897.75;;;9.36;100.00
81181;BME280;70650;51.408;7.132;2024-02-04T06:58:41;100905.81;;;9.33;100.00
81181;BME280;70650;51.408;7.132;2024-02-04T07:01:06;100901.31;;;9.35;100.00
81181;BME280;70650;51.408;7.132;2024-02-04T07:03:31;100895.94;;;9.38;99.54
81181;BME280;70650;51.408;7.132;2024-02-04T07:06:00;100903.84;;;9.38;99.28
81181;BME280;70650;51.408;7.132;2024-02-04T07:08:26;100912.31;;;9.46;99.12
81181;BME280;70650;51.408;7.132;2024-02-04T07:10:52;100899.28;;;9.41;99.28
81181;BME280;70650;51.408;7.132;2024-02-04T07:13:17;100910.66;;;9.43;99.18
81181;BME280;70650;51.408;7.132;2024-02-04T07:15:44;100905.81;;;9.54;98.21
81181;BME280;70650;51.408;7.132;2024-02-04T07:18:09;100909.41;;;9.52;97.98
81181;BME280;70650;51.408;7.132;2024-02-04T07:20:35;100907.00;;;9.47;98.23
81181;BME280;70650;51.408;7.132;2024-02-04T07:23:00;100910.66;;;9.43;98.50
81181;BME280;70650;51.408;7.132;2024-02-04T07:25:27;100922.09;;;9.44;98.70
81181;BME280;70650;51.408;7.132;2024-02-04T07:27:53;100924.66;;;9.45;98.73
81181;BME280;70650;51.408;7.132;2024-02-04T07:30:18;100927.78;;;9.33;99.11
81181;BME280;70650;51.408;7.132;2024-02-04T07:32:45;100938.41;;;9.32;99.86
81181;BME280;70650;51.408;7.132;2024-02-04T07:35:11;100940.13;;;9.33;100.00
81181;BME280;70650;51.408;7.132;2024-02-04T07:37:37;100920.97;;;9.27;100.00
81181;BME280;70650;51.408;7.132;2024-02-04T07:40:03;100922.06;;;9.22;100.00
81181;BME280;70650;51.408;7.132;2024-02-04T07:42:30;100921.06;;;9.24;100.00
81181;BME280;70650;51.408;7.132;2024-02-04T07:44:56;100930.84;;;9.22;100.00
81181;BME280;70650;51.408;7.132;2024-02-04T07:47:21;100918.34;;;9.27;100.00
81181;BME280;70650;51.408;7.132;2024-02-04T07:49:49;100927.16;;;9.26;99.98
81181;BME280;70650;51.408;7.132;2024-02-04T07:52:15;100915.69;;;9.27;100.00
81181;BME280;70650;51.408;7.132;2024-02-04T07:54:41;100923.44;;;9.32;99.99
81181;BME280;70650;51.408;7.132;2024-02-04T07:57:06;100922.44;;;9.35;99.66
81181;BME280;70650;51.408;7.132;2024-02-04T07:59:32;100916.47;;;9.29;100.00
81181;BME280;70650;51.408;7.132;2024-02-04T08:01:58;100924.16;;;9.36;100.00
81181;BME280;70650;51.408;7.132;2024-02-04T08:04:23;100925.03;;;9.36;100.00
81181;BME280;70650;51.408;7.132;2024-02-04T08:06:48;100923.69;;;9.48;100.00
81181;BME280;70650;51.408;7.132;2024-02-04T08:09:14;100916.66;;;9.47;100.00
81181;BME280;70650;51.408;7.132;2024-02-04T08:11:39;100915.34;;;9.37;99.77
81181;BME280;70650;51.408;7.132;2024-02-04T08:14:06;100914.22;;;9.42;99.13
81181;BME280;70650;51.408;7.132;2024-02-04T08:16:31;100922.19;;;9.41;98.83
81181;BME280;70650;51.408;7.132;2024-02-04T08:18:57;100928.47;;;9.38;98.36
81181;BME280;70650;51.408;7.132;2024-02-04T08:21:23;100920.56;;;9.38;98.92
81181;BME280;70650;51.408;7.132;2024-02-04T08:23:48;100930.00;;;9.44;99.17
81181;BME280;70650;51.408;7.132;2024-02-04T08:26:14;100932.06;;;9.36;98.40
81181;BME280;70650;51.408;7.132;2024-02-04T08:28:39;100928.41;;;9.40;97.97
81181;BME280;70650;51.408;7.132;2024-02-04T08:31:04;100908.47;;;9.33;98.11
81181;BME280;70650;51.408;7.132;2024-02-04T08:33:30;100912.13;;;9.28;97.92
81181;BME280;70650;51.408;7.132;2024-02-04T08:35:55;100901.22;;;9.38;98.27
81181;BME280;70650;51.408;7.132;2024-02-04T08:38:20;100906.59;;;9.35;98.56
81181;BME280;70650;51.408;7.132;2024-02-04T08:40:46;100913.38;;;9.42;98.89
81181;BME280;70650;51.408;7.132;2024-02-04T08:43:12;100916.66;;;9.47;99.28
81181;BME280;70650;51.408;7.132;2024-02-04T08:45:37;100910.41;;;9.27;100.00
81181;BME280;70650;51.408;7.132;2024-02-04T08:48:02;100921.06;;;9.24;100.00
81181;BME280;70650;51.408;7.132;2024-02-04T08:50:28;100924.41;;;9.29;100.00
81181;BME280;70650;51.408;7.132;2024-02-04T08:52:54;100917.59;;;9.24;100.00
81181;BME280;70650;51.408;7.132;2024-02-04T08:55:19;100905.25;;;9.24;100.00
81181;BME280;70650;51.408;7.132;2024-02-04T08:57:45;100914.09;;;9.23;100.00
81181;BME280;70650;51.408;7.132;2024-02-04T09:00:10;100916.63;;;9.26;100.00
81181;BME280;70650;51.408;7.132;2024-02-04T09:02:37;100912.06;;;9.30;98.49
81181;BME280;70650;51.408;7.132;2024-02-04T09:05:03;100898.69;;;9.35;99.26
81181;BME280;70650;51.408;7.132;2024-02-04T09:07:28;100900.38;;;9.37;99.89
81181;BME280;70650;51.408;7.132;2024-02-04T09:09:55;100904.78;;;9.37;100.00
81181;BME280;70650;51.408;7.132;2024-02-04T09:12:20;100897.66;;;9.39;100.00
81181;BME280;70650;51.408;7.132;2024-02-04T09:14:46;100910.84;;;9.39;100.00
81181;BME280;70650;51.408;7.132;2024-02-04T09:17:11;100908.38;;;9.34;100.00
81181;BME280;70650;51.408;7.132;2024-02-04T09:19:38;100908.97;;;9.42;100.00
81181;BME280;70650;51.408;7.132;2024-02-04T09:22:03;100907.00;;;9.47;99.85
81181;BME280;70650;51.408;7.132;2024-02-04T09:24:29;100906.09;;;9.47;99.42
81181;BME280;70650;51.408;7.132;2024-02-04T09:26:54;100903.28;;;9.51;98.96
81181;BME280;70650;51.408;7.132;2024-02-04T09:29:20;100903.28;;;9.51;99.04
81181;BME280;70650;51.408;7.132;2024-02-04T09:31:45;100906.75;;;9.53;99.05
81181;BME280;70650;51.408;7.132;2024-02-04T09:34:11;100910.34;;;9.51;98.47
81181;BME280;70650;51.408;7.132;2024-02-04T09:36:36;100910.41;;;9.49;98.32
81181;BME280;70650;51.408;7.132;2024-02-04T09:39:01;100919.97;;;9.52;97.97
81181;BME280;70650;51.408;7.132;2024-02-04T09:41:27;100912.44;;;9.65;97.67
81181;BME280;70650;51.408;7.132;2024-02-04T09:43:52;100904.88;;;9.55;97.86
81181;BME280;70650;51.408;7.132;2024-02-04T09:46:18;100906.66;;;9.55;98.15
81181;BME280;70650;51.408;7.132;2024-02-04T09:48:49;100905.88;;;9.53;98.17
81181;BME280;70650;51.408;7.132;2024-02-04T09:51:17;100918.00;;;9.57;97.76
81181;BME280;70650;51.408;7.132;2024-02-04T09:53:44;100915.38;;;9.57;97.58
81181;BME280;70650;51.408;7.132;2024-02-04T09:56:09;100916.13;;;9.61;98.06
81181;BME280;70650;51.408;7.132;2024-02-04T09:58:36;100915.31;;;9.59;98.35
81181;BME280;70650;51.408;7.132;2024-02-04T10:01:03;100914.59;;;9.55;98.46
81181;BME280;70650;51.408;7.132;2024-02-04T10:03:29;100916.56;;;9.50;98.66
81181;BME280;70650;51.408;7.132;2024-02-04T10:05:55;100925.25;;;9.52;98.56
81181;BME280;70650;51.408;7.132;2024-02-04T10:08:20;100924.38;;;9.53;99.18
81181;BME280;70650;51.408;7.132;2024-02-04T10:10:47;100927.97;;;9.50;98.88
81181;BME280;70650;51.408;7.132;2024-02-04T10:13:12;100924.41;;;9.51;98.94
81181;BME280;70650;51.408;7.132;2024-02-04T10:15:37;100923.47;;;9.52;98.75
81181;BME280;70650;51.408;7.132;2024-02-04T10:18:04;100927.00;;;9.53;99.38
81181;BME280;70650;51.408;7.132;2024-02-04T10:20:30;100927.38;;;9.44;99.60
81181;BME280;70650;51.408;7.132;2024-02-04T10:22:56;100923.03;;;9.41;100.00
81181;BME280;70650;51.408;7.132;2024-02-04T10:25:21;100916.81;;;9.44;100.00
81181;BME280;70650;51.408;7.132;2024-02-04T10:27:47;100914.09;;;9.45;100.00
81181;BME280;70650;51.408;7.132;2024-02-04T10:30:13;100918.66;;;9.42;100.00
81181;BME280;70650;51.408;7.132;2024-02-04T10:32:39;100919.31;;;9.47;100.00
81181;BME280;70650;51.408;7.132;2024-02-04T10:35:04;100932.28;;;9.53;100.00
81181;BME280;70650;51.408;7.132;2024-02-04T10:37:30;100922.78;;;9.69;98.83
81181;BME280;70650;51.408;7.132;2024-02-04T10:39:55;100925.25;;;9.74;98.39
81181;BME280;70650;51.408;7.132;2024-02-04T10:42:24;100931.28;;;9.77;98.54
81181;BME280;70650;51.408;7.132;2024-02-04T10:44:53;100942.00;;;9.73;98.51
81181;BME280;70650;51.408;7.132;2024-02-04T10:47:22;100933.66;;;9.83;97.95
81181;BME280;70650;51.408;7.132;2024-02-04T10:49:52;100936.41;;;9.80;97.71
81181;BME280;70650;51.408;7.132;2024-02-04T10:52:22;100950.28;;;9.86;98.15
81181;BME280;70650;51.408;7.132;2024-02-04T10:54:49;100942.84;;;9.95;97.67
81181;BME280;70650;51.408;7.132;2024-02-04T10:57:20;100934.31;;;9.89;97.85
81181;BME280;70650;51.408;7.132;2024-02-04T10:59:47;100932.41;;;9.92;96.89
81181;BME280;70650;51.408;7.132;2024-02-04T11:02:15;100927.94;;;9.94;97.15
81181;BME280;70650;51.408;7.132;2024-02-04T11:04:42;100919.00;;;9.97;96.83
81181;BME280;70650;51.408;7.132;2024-02-04T11:07:10;100917.81;;;10.04;97.21
81181;BME280;70650;51.408;7.132;2024-02-04T11:09:39;100923.09;;;10.04;97.15
81181;BME280;70650;51.408;7.132;2024-02-04T11:12:11;100919.47;;;10.06;97.28
81181;BME280;70650;51.408;7.132;2024-02-04T11:14:40;100912.75;;;9.99;96.25
81181;BME280;70650;51.408;7.132;2024-02-04T11:18:06;100917.09;;;10.00;96.52
81181;BME280;70650;51.408;7.132;2024-02-04T11:23:54;100908.28;;;9.79;97.44
81181;BME280;70650;51.408;7.132;2024-02-04T11:26:27;100909.66;;;9.68;97.84
81181;BME280;70650;51.408;7.132;2024-02-04T11:28:53;100891.63;;;9.57;98.30
81181;BME280;70650;51.408;7.132;2024-02-04T11:31:21;100893.06;;;9.64;98.89
81181;BME280;70650;51.408;7.132;2024-02-04T11:33:47;100888.19;;;9.55;99.68
81181;BME280;70650;51.408;7.132;2024-02-04T11:36:15;100882.50;;;9.44;100.00
81181;BME280;70650;51.408;7.132;2024-02-04T11:38:43;100886.59;;;9.51;100.00
81181;BME280;70650;51.408;7.132;2024-02-04T11:41:09;100879.72;;;9.47;100.00
81181;BME280;70650;51.408;7.132;2024-02-04T11:43:35;100868.38;;;9.45;100.00
81181;BME280;70650;51.408;7.132;2024-02-04T11:46:04;100863.69;;;9.51;100.00
81181;BME280;70650;51.408;7.132;2024-02-04T11:48:31;100864.69;;;9.49;100.00
81181;BME280;70650;51.408;7.132;2024-02-04T11:50:58;100870.22;;;9.43;100.00
81181;BME280;70650;51.408;7.132;2024-02-04T11:53:27;100859.22;;;9.53;100.00
81181;BME280;70650;51.408;7.132;2024-02-04T11:55:57;100860.06;;;9.54;100.00
81181;BME280;70650;51.408;7.132;2024-02-04T11:58:24;100849.25;;;9.60;100.00
81181;BME280;70650;51.408;7.132;2024-02-04T12:00:52;100848.41;;;9.60;100.00
81181;BME280;70650;51.408;7.132;2024-02-04T12:03:31;100845.69;;;9.61;100.00
81181;BME280;70650;51.408;7.132;2024-02-04T12:05:57;100837.84;;;9.60;100.00
81181;BME280;70650;51.408;7.132;2024-02-04T12:08:25;100832.34;;;9.64;100.00
81181;BME280;70650;51.408;7.132;2024-02-04T12:10:52;100833.00;;;9.69;100.00
81181;BME280;70650;51.408;7.132;2024-02-04T12:13:18;100823.25;;;9.71;100.00
81181;BME280;70650;51.408;7.132;2024-02-04T12:15:47;100830.75;;;9.80;100.00
81181;BME280;70650;51.408;7.132;2024-02-04T12:18:13;100812.25;;;9.82;100.00
81181;BME280;70650;51.408;7.132;2024-02-04T12:20:41;100822.91;;;9.79;100.00
81181;BME280;70650;51.408;7.132;2024-02-04T12:23:07;100806.50;;;9.72;100.00
81181;BME280;70650;51.408;7.132;2024-02-04T12:25:33;100816.19;;;9.72;100.00
81181;BME280;70650;51.408;7.132;2024-02-04T12:27:59;100813.56;;;9.72;100.00
81181;BME280;70650;51.408;7.132;2024-02-04T12:30:26;100820.28;;;9.79;100.00
81181;BME280;70650;51.408;7.132;2024-02-04T12:33:02;100814.66;;;9.87;99.82
81181;BME280;70650;51.408;7.132;2024-02-04T12:35:29;100822.81;;;9.82;100.00
81181;BME280;70650;51.408;7.132;2024-02-04T12:37:56;100822.81;;;9.82;100.00
81181;BME280;70650;51.408;7.132;2024-02-04T12:40:23;100814.03;;;9.81;100.00
81181;BME280;70650;51.408;7.132;2024-02-04T12:42:55;100821.41;;;9.73;100.00
81181;BME280;70650;51.408;7.132;2024-02-04T12:45:24;100818.69;;;9.75;100.00
81181;BME280;70650;51.408;7.132;2024-02-04T12:47:51;100815.00;;;9.79;100.00
81181;BME280;70650;51.408;7.132;2024-02-04T12:50:17;100812.25;;;9.82;100.00
81181;BME280;70650;51.408;7.132;2024-02-04T12:52:47;100817.44;;;9.83;100.00
81181;BME280;70650;51.408;7.132;2024-02-04T12:55:22;100793.69;;;9.83;100.00
81181;BME280;70650;51.408;7.132;2024-02-04T12:57:48;100796.31;;;9.83;100.00
81181;BME280;70650;51.408;7.132;2024-02-04T13:00:18;100782.38;;;9.80;100.00